Latest Weather Observations for Coles Point

IDS60801

Issued at 12:05 pm CDT Sunday 26 October 2014 (issued every 30 minutes, with the page automatically refreshed every 10 minutes)

About weather observations | Map of weather stations | Latest weather observations for SA | Other Formats
Station Details ID: 018191 Name: COLES POINT Lat: -34.37 Lon: 135.37 Height: 28.0 m
Data from the previous 72 hours. | See also: Recent months at Coles Point
Date/Time
CDT
Temp
°C
App
Temp
°C
Dew
Point
Rel
Hum
%
Delta-T
°C
Wind Press
QNH
hPa
Press
MSL
hPa
Rain
since 9 am
mm
Dir
 
Spd
km/h
Gust
km/h
Spd
kts
Gust
kts
26/12:00pm 26.0 23.6 14.5 49 6.9 NE 20 28 11 15 1007.1 1007.1 0.0
26/11:30am 26.1 23.2 13.9 47 7.2 NNE 22 30 12 16 1007.7 1007.7 0.0
26/11:00am 23.2 20.2 13.7 55 5.5 N 22 30 12 16 1008.8 1008.8 0.0
26/10:30am 23.5 20.6 13.9 55 5.6 NNE 22 28 12 15 1008.9 1008.9 0.0
26/10:00am 22.4 19.4 13.7 58 5.1 NNE 22 32 12 17 1009.3 1009.3 0.0
26/09:30am 20.6 17.2 13.8 65 3.9 NE 24 30 13 16 1009.3 1009.3 0.0
26/09:00am 19.2 14.7 13.8 71 3.1 NNE 30 43 16 23 1009.7 1009.7 0.2
26/08:30am 18.6 14.1 13.7 73 2.8 NNE 30 37 16 20 1009.3 1009.3 0.2
26/08:00am 17.4 12.4 13.3 77 2.3 NNE 32 46 17 25 1009.3 1009.3 0.2
26/07:52am 17.4 12.7 13.3 77 2.3 NNE 30 39 16 21 1009.0 1009.0 0.2
26/07:30am 18.0 16.4 12.9 72 2.9 NE 13 20 7 11 1010.3 1010.3 0.0
26/07:00am 18.8 16.6 12.1 65 3.7 NNE 15 20 8 11 1010.1 1010.1 0.0
26/06:30am 18.5 15.5 11.8 65 3.7 NE 19 24 10 13 1009.1 1009.1 0.0
26/06:00am 16.7 14.0 12.8 78 2.2 NE 19 22 10 12 1009.4 1009.4 0.0
26/05:30am 15.3 13.2 12.4 83 1.6 E 15 19 8 10 1010.3 1010.3 0.0
26/05:00am 15.7 14.4 12.6 82 1.7 E 11 15 6 8 1012.0 1012.0 0.0
26/04:30am 17.1 15.9 12.8 76 2.4 NW 11 19 6 10 1013.4 1013.4 0.0
26/04:04am 16.5 12.3 13.4 82 1.7 N 28 48 15 26 1013.6 1013.6 0.0
26/04:00am 15.5 11.1 12.8 84 1.5 NNE 28 32 15 17 1012.7 1012.7 0.0
26/03:59am 15.5 11.1 12.8 84 1.5 NNE 28 33 15 18 1012.2 1012.2 0.0
26/03:30am 14.9 10.3 12.4 85 1.4 NNE 28 32 15 17 1010.2 1010.2 0.0
26/03:00am 14.9 10.7 12.4 85 1.4 NNE 26 30 14 16 1010.4 1010.4 0.0
26/02:30am 14.6 11.7 12.3 86 1.3 NE 19 26 10 14 1011.0 1011.0 0.0
26/02:00am 14.9 12.4 12.2 84 1.5 NE 17 22 9 12 1012.0 1012.0 0.0
26/01:30am 14.9 12.8 12.4 85 1.4 NNE 15 22 8 12 1012.5 1012.5 0.0
26/01:00am 14.9 11.5 12.4 85 1.4 NE 22 30 12 16 1012.6 1012.6 0.0
26/12:30am 14.8 12.6 12.1 84 1.5 NE 15 20 8 11 1013.2 1013.2 0.0
26/12:00am 15.1 13.8 12.4 84 1.5 NE 11 15 6 8 1013.9 1013.9 0.0
 
Date/Time
CDT
Temp
°C
App
Temp
°C
Dew
Point
Rel
Hum
%
Delta-T
°C
Wind Press
QNH
hPa
Press
MSL
hPa
Rain
since 9 am
mm
Dir
 
Spd
km/h
Gust
km/h
Spd
kts
Gust
kts
25/11:30pm 15.2 13.1 12.3 83 1.6 NE 15 19 8 10 1014.4 1014.4 0.0
25/11:00pm 15.4 13.3 12.3 82 1.7 NE 15 20 8 11 1014.8 1014.8 0.0
25/10:30pm 15.7 12.9 12.5 81 1.8 NE 19 26 10 14 1015.1 1015.1 0.0
25/10:00pm 15.9 13.5 12.5 80 1.9 NE 17 20 9 11 1015.1 1015.1 0.0
25/09:30pm 14.8 14.1 11.4 80 1.8 E 6 9 3 5 1015.6 1015.6 0.0
25/09:00pm 15.3 13.3 11.5 78 2.0 SE 13 17 7 9 1015.4 1015.4 0.0
25/08:30pm 15.9 14.5 12.3 79 2.0 SSE 11 15 6 8 1015.2 1015.2 0.0
25/08:00pm 16.4 14.9 12.0 75 2.4 S 11 19 6 10 1015.5 1015.5 0.0
25/07:30pm 17.3 14.8 12.4 73 2.7 S 17 22 9 12 1015.4 1015.4 0.0
25/07:00pm 17.7 15.2 12.4 71 2.9 S 17 20 9 11 1015.4 1015.4 0.0
25/06:30pm 18.7 15.7 12.7 68 3.4 SSW 20 26 11 14 1015.3 1015.3 0.0
25/06:00pm 19.0 16.2 12.7 67 3.5 SW 19 24 10 13 1015.4 1015.4 0.0
25/05:30pm 19.8 16.5 12.8 64 3.9 SSW 22 28 12 15 1015.3 1015.3 0.0
25/05:00pm 21.7 20.6 13.1 58 4.9 SSW 11 17 6 9 1014.9 1014.9 0.0
25/04:30pm 19.7 18.3 12.2 62 4.2 WSW 11 15 6 8 1015.3 1015.3 0.0
25/04:00pm 19.0 17.1 11.8 63 4.0 W 13 19 7 10 1016.1 1016.1 0.0
25/03:30pm 18.9 16.7 12.2 65 3.7 WSW 15 19 8 10 1016.5 1016.5 0.0
25/03:00pm 19.6 17.1 12.4 63 4.0 W 17 24 9 13 1016.9 1016.9 0.0
25/02:30pm 19.2 16.6 12.0 63 4.0 W 17 22 9 12 1016.9 1016.9 0.0
25/02:00pm 19.3 17.0 11.8 62 4.1 W 15 20 8 11 1017.2 1017.2 0.0
25/01:30pm 18.7 16.5 12.0 65 3.7 W 15 20 8 11 1017.4 1017.4 0.0
25/01:00pm 19.4 17.6 12.2 63 4.0 WSW 13 20 7 11 1017.6 1017.6 0.0
25/12:30pm 18.4 16.5 11.7 65 3.7 W 13 19 7 10 1017.9 1017.9 0.0
25/12:00pm 18.7 17.0 12.5 67 3.5 W 13 17 7 9 1017.9 1017.9 0.0
25/11:30am 18.6 17.2 12.1 66 3.6 W 11 17 6 9 1018.1 1018.1 0.0
25/11:00am 18.5 17.7 11.6 64 3.8 WSW 7 11 4 6 1018.6 1018.5 0.0
25/10:30am 17.6 16.4 11.6 68 3.3 SW 9 11 5 6 1018.8 1018.7 0.0
25/10:00am 17.3 16.5 11.6 69 3.1 WSW 7 13 4 7 1018.7 1018.6 0.0
25/09:30am 16.9 16.2 11.4 70 3.0 SSW 6 7 3 4 1018.4 1018.3 0.0
25/09:00am 16.4 16.7 12.2 76 2.3 SW 2 4 1 2 1018.4 1018.3 0.0
25/08:30am 15.7 15.2 12.6 82 1.7 SW 7 9 4 5 1018.5 1018.4 0.0
25/08:00am 15.5 15.4 13.2 86 1.3 SSW 6 9 3 5 1018.6 1018.5 0.0
25/07:30am 15.0 14.3 13.2 89 1.0 WSW 9 13 5 7 1018.8 1018.7 0.0
25/07:00am 14.9 14.8 13.4 91 0.8 SW 6 7 3 4 1018.7 1018.6 0.0
25/06:30am 14.4 15.4 13.3 93 0.6 CALM 0 0 0 0 1018.5 1018.4 0.0
25/06:00am 14.4 15.4 13.3 93 0.6 CALM 0 0 0 0 1017.9 1017.9 0.0
25/05:30am 14.2 15.2 13.2 94 0.6 CALM 0 0 0 0 1017.4 1017.4 0.0
25/05:00am 14.2 14.1 13.4 95 0.4 SSE 6 7 3 4 1017.1 1017.1 0.0
25/04:30am 13.9 13.6 13.3 96 0.3 S 7 9 4 5 1017.0 1017.0 0.0
25/04:00am 13.2 12.9 12.6 96 0.3 SSE 6 9 3 5 1016.7 1016.7 0.0
25/03:30am 12.4 11.3 11.8 96 0.3 S 9 13 5 7 1016.4 1016.4 0.0
25/03:00am 9.8 9.6 8.9 94 0.4 CALM 0 6 0 3 1016.5 1016.5 0.0
25/02:30am 9.8 9.5 8.7 93 0.5 CALM 0 0 0 0 1016.3 1016.3 0.0
25/02:00am 10.1 9.9 8.9 92 0.6 CALM 0 0 0 0 1016.1 1016.1 0.0
25/01:30am 11.1 10.0 9.9 92 0.6 SSE 6 7 3 4 1016.5 1016.5 0.0
25/01:00am 12.5 12.1 11.2 92 0.7 S 4 7 2 4 1016.9 1016.9 0.0
25/12:30am 13.2 12.5 11.9 92 0.7 S 7 9 4 5 1017.0 1017.0 0.0
25/12:00am 13.7 13.3 12.3 91 0.8 S 6 9 3 5 1017.0 1017.0 0.0
 
Date/Time
CDT
Temp
°C
App
Temp
°C
Dew
Point
Rel
Hum
%
Delta-T
°C
Wind Press
QNH
hPa
Press
MSL
hPa
Rain
since 9 am
mm
Dir
 
Spd
km/h
Gust
km/h
Spd
kts
Gust
kts
24/11:30pm 14.0 13.1 12.6 91 0.8 SSE 9 13 5 7 1017.1 1017.1 0.0
24/11:00pm 13.7 13.6 12.1 90 0.9 SSE 4 7 2 4 1017.0 1017.0 0.0
24/10:30pm 13.9 13.9 12.3 90 0.9 S 4 6 2 3 1017.1 1017.1 0.0
24/10:00pm 14.8 14.1 13.2 90 0.9 S 9 11 5 6 1016.8 1016.8 0.0
24/09:30pm 15.0 14.6 13.0 88 1.1 S 7 11 4 6 1016.5 1016.5 0.0
24/09:00pm 15.2 14.5 13.1 87 1.2 S 9 11 5 6 1016.2 1016.2 0.0
24/08:30pm 15.8 15.2 13.5 86 1.3 S 9 15 5 8 1015.7 1015.7 0.0
24/08:00pm 16.4 14.7 13.7 84 1.5 S 15 19 8 10 1015.2 1015.2 0.0
24/07:30pm 17.3 15.0 14.0 81 1.9 S 19 28 10 15 1014.8 1014.8 0.0
24/07:00pm 18.2 15.7 14.1 77 2.4 S 20 30 11 16 1014.7 1014.7 0.0
24/06:30pm 19.5 17.6 14.3 72 3.0 S 17 26 9 14 1014.2 1014.2 0.0
24/06:00pm 19.8 17.3 14.2 70 3.2 S 20 28 11 15 1013.9 1013.9 0.0
24/05:30pm 20.4 17.9 14.1 67 3.7 S 20 26 11 14 1013.8 1013.8 0.0
24/05:00pm 21.1 18.3 14.3 65 4.0 SSW 22 30 12 16 1013.6 1013.6 0.0
24/04:30pm 22.4 19.4 13.7 58 5.1 SSW 22 28 12 15 1013.4 1013.4 0.0
24/04:00pm 21.9 18.1 12.5 55 5.3 SSW 24 32 13 17 1013.3 1013.3 0.0
24/03:30pm 22.7 19.1 13.2 55 5.5 SSW 24 32 13 17 1013.4 1013.4 0.0
24/03:00pm 25.0 22.0 10.8 41 7.9 SSW 17 20 9 11 1013.3 1013.3 0.0
24/02:30pm 23.4 20.4 12.1 49 6.4 SSW 19 24 10 13 1013.8 1013.8 0.0
24/02:00pm 24.1 20.7 12.4 48 6.7 SSW 22 30 12 16 1014.1 1014.1 0.0
24/01:30pm 22.8 21.0 13.3 55 5.5 SW 15 20 8 11 1013.9 1013.9 0.0
24/01:00pm 23.2 21.0 12.2 50 6.2 WSW 15 20 8 11 1014.1 1014.1 0.0
24/12:30pm 24.6 22.3 10.5 41 7.8 W 13 19 7 10 1014.2 1014.2 0.0
24/12:00pm 23.6 22.8 11.6 47 6.8 WNW 7 11 4 6 1014.2 1014.2 0.0
24/11:30am 22.9 21.8 11.9 50 6.2 WNW 9 13 5 7 1014.5 1014.5 0.0
24/11:00am 22.5 20.4 11.3 49 6.2 NW 13 19 7 10 1014.7 1014.7 0.0
24/10:30am 22.6 20.8 10.7 47 6.6 W 11 15 6 8 1014.5 1014.5 0.0
24/10:00am 23.8 22.3 10.5 43 7.4 W 9 13 5 7 1014.1 1014.1 0.0
24/09:30am 22.4 22.4 12.4 53 5.7 E 4 7 2 4 1014.0 1014.0 0.0
24/09:00am 19.5 18.4 12.0 62 4.2 ENE 9 11 5 6 1014.1 1014.1 0.0
24/08:30am 18.3 16.3 11.6 65 3.7 NE 13 17 7 9 1014.1 1014.1 0.0
24/08:00am 16.8 15.8 12.3 75 2.5 NE 9 13 5 7 1013.8 1013.8 0.0
24/07:30am 15.4 15.0 12.3 82 1.7 ENE 6 11 3 6 1013.5 1013.5 0.0
24/07:00am 14.4 13.6 11.6 83 1.5 NE 7 13 4 7 1013.6 1013.6 0.0
24/06:30am 14.0 13.3 11.3 84 1.4 NNE 6 15 3 8 1013.1 1013.1 0.0
24/06:00am 14.1 13.3 11.6 85 1.3 NNE 7 11 4 6 1012.7 1012.7 0.0
24/05:30am 13.9 12.5 10.9 82 1.6 E 9 13 5 7 1012.3 1012.3 0.0
24/05:00am 15.1 12.1 12.1 82 1.6 NE 19 24 10 13 1011.6 1011.6 0.0
24/04:30am 15.6 12.6 12.0 79 2.0 NE 19 22 10 12 1011.6 1011.6 0.0
24/04:00am 15.6 12.6 12.0 79 2.0 NNE 19 22 10 12 1011.7 1011.7 0.0
24/03:30am 15.5 12.5 11.9 79 2.0 NNE 19 22 10 12 1012.1 1012.1 0.0
24/03:00am 15.7 12.1 11.9 78 2.1 NE 22 24 12 13 1011.9 1011.9 0.0
24/02:30am 16.7 13.2 12.3 75 2.4 NE 22 28 12 15 1012.2 1012.2 0.0
24/02:00am 16.6 13.1 12.2 75 2.4 NE 22 26 12 14 1012.5 1012.5 0.0
24/01:30am 16.4 12.7 11.6 73 2.6 NNE 22 26 12 14 1012.7 1012.7 0.0
24/01:00am 16.7 13.0 11.6 72 2.8 NNE 22 28 12 15 1013.0 1013.0 0.0
24/12:30am 16.9 13.7 11.8 72 2.8 NNE 20 26 11 14 1013.0 1013.0 0.0
24/12:00am 16.6 13.0 11.7 73 2.7 ENE 22 26 12 14 1013.3 1013.3 0.0
 
Date/Time
CDT
Temp
°C
App
Temp
°C
Dew
Point
Rel
Hum
%
Delta-T
°C
Wind Press
QNH
hPa
Press
MSL
hPa
Rain
since 9 am
mm
Dir
 
Spd
km/h
Gust
km/h
Spd
kts
Gust
kts
23/11:30pm 16.8 13.8 12.1 74 2.6 NE 19 22 10 12 1014.4 1014.4 0.0
23/11:00pm 16.7 13.7 11.8 73 2.7 NNE 19 22 10 12 1014.9 1014.9 0.0
23/10:30pm 17.1 14.1 11.8 71 2.9 NNE 19 24 10 13 1015.0 1015.0 0.0
23/10:00pm 17.5 15.0 12.2 71 2.9 NNE 17 22 9 12 1015.2 1015.2 0.0
23/09:30pm 17.2 16.0 12.7 75 2.5 NNE 11 15 6 8 1014.8 1014.8 0.0
23/09:00pm 15.5 14.7 11.7 78 2.1 ESE 7 11 4 6 1014.6 1014.6 0.0
23/08:30pm 16.7 16.3 13.0 79 2.1 SE 7 9 4 5 1014.7 1014.7 0.0
23/08:00pm 17.5 16.3 12.8 74 2.6 SSE 11 13 6 7 1014.7 1014.7 0.0
23/07:30pm 18.1 17.1 12.3 69 3.2 SSE 9 13 5 7 1014.8 1014.8 0.0
23/07:00pm 19.0 17.9 13.0 68 3.4 SSE 11 13 6 7 1015.0 1015.0 0.0
23/06:30pm 20.4 19.2 12.9 62 4.3 S 11 15 6 8 1015.2 1015.2 0.0
23/06:00pm 20.1 17.6 12.3 61 4.4 SSW 17 19 9 10 1015.5 1015.5 0.0
23/05:30pm 20.6 18.1 12.3 59 4.7 SSW 17 20 9 11 1015.3 1015.3 0.0
23/05:00pm 21.1 18.4 12.8 59 4.7 SW 19 24 10 13 1015.4 1015.4 0.0
23/04:30pm 21.0 18.2 13.2 61 4.5 SW 20 26 11 14 1015.0 1015.0 0.0
23/04:00pm 21.3 18.3 13.7 62 4.4 SW 22 28 12 15 1015.2 1015.2 0.0
23/03:30pm 20.7 18.1 13.2 62 4.3 SW 19 22 10 12 1015.2 1015.2 0.0
23/03:00pm 21.1 19.0 12.5 58 4.9 WSW 15 20 8 11 1015.5 1015.5 0.0
23/02:30pm 21.5 18.7 12.6 57 5.0 SW 19 24 10 13 1015.7 1015.7 0.0
23/02:00pm 21.7 19.6 12.5 56 5.2 SW 15 19 8 10 1015.5 1015.5 0.0
23/01:30pm 20.6 18.4 12.1 58 4.8 SW 15 19 8 10 1016.0 1016.0 0.0
23/01:00pm 20.4 17.7 11.6 57 4.9 SW 17 20 9 11 1016.6 1016.6 0.0
23/12:30pm 19.6 16.8 11.4 59 4.5 SW 17 19 9 10 1017.2 1017.2 0.0

Other Formats:

Comma delimited format used in spreadsheet applications
http://www.bom.gov.au/fwo/IDS60801/IDS60801.94658.axf

JavaScript Object Notation format (JSON) in row-major order
http://www.bom.gov.au/fwo/IDS60801/IDS60801.94658.json